sensor_id;sensor_type;location;lat;lon;timestamp;P1;durP1;ratioP1;P2;durP2;ratioP2
16669;SDS011;8448;52.034;5.158;2023-03-23T00:01:30;12.27;;;5.00;;
16669;SDS011;8448;52.034;5.158;2023-03-23T00:04:02;12.53;;;5.43;;
16669;SDS011;8448;52.034;5.158;2023-03-23T00:06:30;7.40;;;4.73;;
16669;SDS011;8448;52.034;5.158;2023-03-23T00:08:59;9.00;;;4.67;;
16669;SDS011;8448;52.034;5.158;2023-03-23T00:11:29;7.73;;;4.73;;
16669;SDS011;8448;52.034;5.158;2023-03-23T00:13:58;10.93;;;5.07;;
16669;SDS011;8448;52.034;5.158;2023-03-23T00:16:28;8.93;;;5.00;;
16669;SDS011;8448;52.034;5.158;2023-03-23T00:18:58;10.60;;;5.30;;
16669;SDS011;8448;52.034;5.158;2023-03-23T00:21:27;7.90;;;4.60;;
16669;SDS011;8448;52.034;5.158;2023-03-23T00:24:03;7.10;;;5.00;;
16669;SDS011;8448;52.034;5.158;2023-03-23T00:26:32;7.27;;;4.67;;
16669;SDS011;8448;52.034;5.158;2023-03-23T00:29:00;8.03;;;4.80;;
16669;SDS011;8448;52.034;5.158;2023-03-23T00:31:31;7.57;;;4.63;;
16669;SDS011;8448;52.034;5.158;2023-03-23T00:34:01;11.43;;;4.50;;
16669;SDS011;8448;52.034;5.158;2023-03-23T00:36:30;7.70;;;4.30;;
16669;SDS011;8448;52.034;5.158;2023-03-23T00:39:00;5.50;;;3.90;;
16669;SDS011;8448;52.034;5.158;2023-03-23T00:41:28;6.90;;;3.77;;
16669;SDS011;8448;52.034;5.158;2023-03-23T00:43:56;6.60;;;3.77;;
16669;SDS011;8448;52.034;5.158;2023-03-23T00:46:26;6.87;;;4.07;;
16669;SDS011;8448;52.034;5.158;2023-03-23T00:48:55;4.70;;;3.63;;
16669;SDS011;8448;52.034;5.158;2023-03-23T00:51:23;6.23;;;3.77;;
16669;SDS011;8448;52.034;5.158;2023-03-23T00:53:51;6.47;;;4.00;;
16669;SDS011;8448;52.034;5.158;2023-03-23T00:56:18;7.73;;;4.03;;
16669;SDS011;8448;52.034;5.158;2023-03-23T00:58:46;6.53;;;4.57;;
16669;SDS011;8448;52.034;5.158;2023-03-23T01:01:13;8.47;;;4.90;;
16669;SDS011;8448;52.034;5.158;2023-03-23T01:03:40;8.27;;;5.20;;
16669;SDS011;8448;52.034;5.158;2023-03-23T01:06:09;8.03;;;4.80;;
16669;SDS011;8448;52.034;5.158;2023-03-23T01:08:41;7.10;;;4.03;;
16669;SDS011;8448;52.034;5.158;2023-03-23T01:11:12;6.37;;;4.20;;
16669;SDS011;8448;52.034;5.158;2023-03-23T01:13:41;6.77;;;4.43;;
16669;SDS011;8448;52.034;5.158;2023-03-23T01:16:09;4.93;;;4.03;;
16669;SDS011;8448;52.034;5.158;2023-03-23T01:18:37;7.03;;;4.57;;
16669;SDS011;8448;52.034;5.158;2023-03-23T01:21:05;7.97;;;4.53;;
16669;SDS011;8448;52.034;5.158;2023-03-23T01:23:36;7.87;;;4.47;;
16669;SDS011;8448;52.034;5.158;2023-03-23T01:26:05;6.10;;;4.00;;
16669;SDS011;8448;52.034;5.158;2023-03-23T01:28:33;10.20;;;4.37;;
16669;SDS011;8448;52.034;5.158;2023-03-23T01:31:02;8.47;;;4.20;;
16669;SDS011;8448;52.034;5.158;2023-03-23T01:33:31;6.73;;;3.83;;
16669;SDS011;8448;52.034;5.158;2023-03-23T01:36:02;7.53;;;3.60;;
16669;SDS011;8448;52.034;5.158;2023-03-23T01:38:30;6.63;;;3.80;;
16669;SDS011;8448;52.034;5.158;2023-03-23T01:40:59;5.87;;;3.50;;
16669;SDS011;8448;52.034;5.158;2023-03-23T01:43:26;4.97;;;3.50;;
16669;SDS011;8448;52.034;5.158;2023-03-23T01:45:54;5.23;;;3.67;;
16669;SDS011;8448;52.034;5.158;2023-03-23T01:48:23;5.13;;;3.30;;
16669;SDS011;8448;52.034;5.158;2023-03-23T01:50:53;4.53;;;3.60;;
16669;SDS011;8448;52.034;5.158;2023-03-23T01:53:25;5.87;;;3.80;;
16669;SDS011;8448;52.034;5.158;2023-03-23T01:55:55;5.77;;;3.77;;
16669;SDS011;8448;52.034;5.158;2023-03-23T01:58:26;7.27;;;3.90;;
16669;SDS011;8448;52.034;5.158;2023-03-23T02:00:55;6.77;;;3.83;;
16669;SDS011;8448;52.034;5.158;2023-03-23T02:03:26;6.77;;;3.73;;
16669;SDS011;8448;52.034;5.158;2023-03-23T02:05:54;5.00;;;3.77;;
16669;SDS011;8448;52.034;5.158;2023-03-23T02:08:47;4.80;;;3.73;;
16669;SDS011;8448;52.034;5.158;2023-03-23T02:11:17;4.77;;;3.37;;
16669;SDS011;8448;52.034;5.158;2023-03-23T02:13:46;6.60;;;3.70;;
16669;SDS011;8448;52.034;5.158;2023-03-23T02:16:16;5.73;;;3.40;;
16669;SDS011;8448;52.034;5.158;2023-03-23T02:18:57;7.20;;;3.77;;
16669;SDS011;8448;52.034;5.158;2023-03-23T02:21:48;6.13;;;3.90;;
16669;SDS011;8448;52.034;5.158;2023-03-23T02:30:50;4.53;;;3.43;;
16669;SDS011;8448;52.034;5.158;2023-03-23T02:33:35;5.93;;;3.73;;
16669;SDS011;8448;52.034;5.158;2023-03-23T02:36:07;6.07;;;3.60;;
16669;SDS011;8448;52.034;5.158;2023-03-23T02:38:41;9.03;;;3.60;;
16669;SDS011;8448;52.034;5.158;2023-03-23T02:41:16;5.00;;;3.33;;
16669;SDS011;8448;52.034;5.158;2023-03-23T02:43:46;5.57;;;3.43;;
16669;SDS011;8448;52.034;5.158;2023-03-23T02:46:14;6.10;;;3.37;;
16669;SDS011;8448;52.034;5.158;2023-03-23T02:48:44;8.07;;;3.30;;
16669;SDS011;8448;52.034;5.158;2023-03-23T02:51:14;4.37;;;2.90;;
16669;SDS011;8448;52.034;5.158;2023-03-23T02:53:42;6.43;;;2.93;;
16669;SDS011;8448;52.034;5.158;2023-03-23T02:56:11;6.07;;;2.83;;
16669;SDS011;8448;52.034;5.158;2023-03-23T02:58:39;5.47;;;3.23;;
16669;SDS011;8448;52.034;5.158;2023-03-23T03:01:13;5.57;;;3.00;;
16669;SDS011;8448;52.034;5.158;2023-03-23T03:03:44;5.07;;;2.80;;
16669;SDS011;8448;52.034;5.158;2023-03-23T03:06:14;4.73;;;2.87;;
16669;SDS011;8448;52.034;5.158;2023-03-23T03:08:49;5.20;;;2.60;;
16669;SDS011;8448;52.034;5.158;2023-03-23T03:11:19;9.87;;;3.00;;
16669;SDS011;8448;52.034;5.158;2023-03-23T03:13:52;5.57;;;2.60;;
16669;SDS011;8448;52.034;5.158;2023-03-23T03:16:24;5.03;;;2.83;;
16669;SDS011;8448;52.034;5.158;2023-03-23T03:18:57;7.60;;;2.60;;
16669;SDS011;8448;52.034;5.158;2023-03-23T03:21:27;4.17;;;2.43;;
16669;SDS011;8448;52.034;5.158;2023-03-23T03:23:58;5.80;;;2.60;;
16669;SDS011;8448;52.034;5.158;2023-03-23T03:26:28;6.47;;;2.50;;
16669;SDS011;8448;52.034;5.158;2023-03-23T03:29:06;6.00;;;3.00;;
16669;SDS011;8448;52.034;5.158;2023-03-23T03:31:40;4.00;;;2.30;;
16669;SDS011;8448;52.034;5.158;2023-03-23T03:34:12;9.50;;;2.60;;
16669;SDS011;8448;52.034;5.158;2023-03-23T03:36:43;4.43;;;2.30;;
16669;SDS011;8448;52.034;5.158;2023-03-23T03:39:11;5.90;;;2.70;;
16669;SDS011;8448;52.034;5.158;2023-03-23T03:41:42;5.87;;;2.50;;
16669;SDS011;8448;52.034;5.158;2023-03-23T03:44:10;4.80;;;2.43;;
16669;SDS011;8448;52.034;5.158;2023-03-23T03:46:37;5.83;;;2.60;;
16669;SDS011;8448;52.034;5.158;2023-03-23T03:49:06;3.93;;;2.50;;
16669;SDS011;8448;52.034;5.158;2023-03-23T03:51:38;3.80;;;2.30;;
16669;SDS011;8448;52.034;5.158;2023-03-23T03:54:10;4.63;;;2.40;;
16669;SDS011;8448;52.034;5.158;2023-03-23T03:56:38;4.93;;;2.53;;
16669;SDS011;8448;52.034;5.158;2023-03-23T03:59:26;5.13;;;2.30;;
16669;SDS011;8448;52.034;5.158;2023-03-23T04:02:15;3.20;;;2.13;;
16669;SDS011;8448;52.034;5.158;2023-03-23T04:04:46;4.77;;;2.40;;
16669;SDS011;8448;52.034;5.158;2023-03-23T04:07:14;7.03;;;2.30;;
16669;SDS011;8448;52.034;5.158;2023-03-23T04:09:42;4.37;;;2.30;;
16669;SDS011;8448;52.034;5.158;2023-03-23T04:12:12;7.17;;;2.50;;
16669;SDS011;8448;52.034;5.158;2023-03-23T04:14:54;4.67;;;2.30;;
16669;SDS011;8448;52.034;5.158;2023-03-23T04:17:27;4.40;;;1.90;;
16669;SDS011;8448;52.034;5.158;2023-03-23T04:19:56;2.87;;;1.77;;
16669;SDS011;8448;52.034;5.158;2023-03-23T04:22:26;6.13;;;2.13;;
16669;SDS011;8448;52.034;5.158;2023-03-23T04:24:58;4.63;;;1.97;;
16669;SDS011;8448;52.034;5.158;2023-03-23T04:27:30;5.40;;;2.07;;
16669;SDS011;8448;52.034;5.158;2023-03-23T04:30:00;5.37;;;1.90;;
16669;SDS011;8448;52.034;5.158;2023-03-23T04:32:40;5.60;;;2.20;;
16669;SDS011;8448;52.034;5.158;2023-03-23T04:35:11;5.97;;;2.10;;
16669;SDS011;8448;52.034;5.158;2023-03-23T04:37:46;6.00;;;2.20;;
16669;SDS011;8448;52.034;5.158;2023-03-23T04:40:17;4.67;;;2.00;;
16669;SDS011;8448;52.034;5.158;2023-03-23T04:42:54;8.17;;;2.17;;
16669;SDS011;8448;52.034;5.158;2023-03-23T04:45:40;6.37;;;2.03;;
16669;SDS011;8448;52.034;5.158;2023-03-23T04:48:11;5.73;;;1.70;;
16669;SDS011;8448;52.034;5.158;2023-03-23T04:50:49;6.83;;;1.87;;
16669;SDS011;8448;52.034;5.158;2023-03-23T04:53:24;6.40;;;2.27;;
16669;SDS011;8448;52.034;5.158;2023-03-23T04:55:51;6.17;;;2.07;;
16669;SDS011;8448;52.034;5.158;2023-03-23T04:58:19;7.30;;;1.93;;
16669;SDS011;8448;52.034;5.158;2023-03-23T05:01:08;8.32;;;2.40;;
16669;SDS011;8448;52.034;5.158;2023-03-23T05:03:44;10.80;;;2.30;;
16669;SDS011;8448;52.034;5.158;2023-03-23T05:06:12;7.60;;;2.40;;
16669;SDS011;8448;52.034;5.158;2023-03-23T05:08:41;10.27;;;2.20;;
16669;SDS011;8448;52.034;5.158;2023-03-23T05:11:09;8.80;;;2.30;;
16669;SDS011;8448;52.034;5.158;2023-03-23T05:13:40;8.30;;;2.33;;
16669;SDS011;8448;52.034;5.158;2023-03-23T05:16:09;10.17;;;2.30;;
16669;SDS011;8448;52.034;5.158;2023-03-23T05:18:39;7.67;;;2.20;;
16669;SDS011;8448;52.034;5.158;2023-03-23T05:21:09;9.23;;;2.50;;
16669;SDS011;8448;52.034;5.158;2023-03-23T05:23:42;7.27;;;2.20;;
16669;SDS011;8448;52.034;5.158;2023-03-23T05:26:16;8.40;;;2.57;;
16669;SDS011;8448;52.034;5.158;2023-03-23T05:28:43;7.60;;;2.07;;
16669;SDS011;8448;52.034;5.158;2023-03-23T05:31:31;8.50;;;2.27;;
16669;SDS011;8448;52.034;5.158;2023-03-23T05:33:59;10.67;;;2.20;;
16669;SDS011;8448;52.034;5.158;2023-03-23T05:36:33;9.30;;;2.73;;
16669;SDS011;8448;52.034;5.158;2023-03-23T05:39:15;6.87;;;2.43;;
16669;SDS011;8448;52.034;5.158;2023-03-23T05:42:15;8.57;;;2.50;;
16669;SDS011;8448;52.034;5.158;2023-03-23T05:44:55;7.90;;;2.17;;
16669;SDS011;8448;52.034;5.158;2023-03-23T05:47:23;10.67;;;2.77;;
16669;SDS011;8448;52.034;5.158;2023-03-23T05:49:55;8.38;;;2.70;;
16669;SDS011;8448;52.034;5.158;2023-03-23T05:52:24;11.23;;;2.50;;
16669;SDS011;8448;52.034;5.158;2023-03-23T05:54:53;8.57;;;2.73;;
16669;SDS011;8448;52.034;5.158;2023-03-23T05:57:22;7.07;;;2.57;;
16669;SDS011;8448;52.034;5.158;2023-03-23T06:00:25;10.93;;;2.50;;
16669;SDS011;8448;52.034;5.158;2023-03-23T06:03:04;5.70;;;2.37;;
16669;SDS011;8448;52.034;5.158;2023-03-23T06:05:43;10.13;;;2.50;;
16669;SDS011;8448;52.034;5.158;2023-03-23T06:08:14;10.13;;;2.70;;
16669;SDS011;8448;52.034;5.158;2023-03-23T06:10:43;9.93;;;2.63;;
16669;SDS011;8448;52.034;5.158;2023-03-23T06:13:12;11.73;;;2.47;;
16669;SDS011;8448;52.034;5.158;2023-03-23T06:15:46;8.23;;;2.43;;
16669;SDS011;8448;52.034;5.158;2023-03-23T06:18:16;7.63;;;2.37;;
16669;SDS011;8448;52.034;5.158;2023-03-23T06:21:09;7.13;;;2.57;;
16669;SDS011;8448;52.034;5.158;2023-03-23T06:23:53;7.77;;;2.60;;
16669;SDS011;8448;52.034;5.158;2023-03-23T06:26:24;7.03;;;2.27;;
16669;SDS011;8448;52.034;5.158;2023-03-23T06:28:57;8.10;;;2.63;;
16669;SDS011;8448;52.034;5.158;2023-03-23T06:31:26;8.73;;;2.77;;
16669;SDS011;8448;52.034;5.158;2023-03-23T06:33:54;8.07;;;2.63;;
16669;SDS011;8448;52.034;5.158;2023-03-23T06:36:24;9.13;;;2.80;;
16669;SDS011;8448;52.034;5.158;2023-03-23T06:39:02;9.57;;;2.90;;
16669;SDS011;8448;52.034;5.158;2023-03-23T06:41:45;9.90;;;2.57;;
16669;SDS011;8448;52.034;5.158;2023-03-23T06:44:12;8.83;;;2.77;;
16669;SDS011;8448;52.034;5.158;2023-03-23T06:46:40;11.70;;;2.93;;
16669;SDS011;8448;52.034;5.158;2023-03-23T06:49:16;6.10;;;2.43;;
16669;SDS011;8448;52.034;5.158;2023-03-23T06:51:52;8.17;;;2.67;;
16669;SDS011;8448;52.034;5.158;2023-03-23T06:54:21;8.00;;;2.80;;
16669;SDS011;8448;52.034;5.158;2023-03-23T06:56:50;9.53;;;2.47;;
16669;SDS011;8448;52.034;5.158;2023-03-23T06:59:18;8.83;;;2.77;;
16669;SDS011;8448;52.034;5.158;2023-03-23T07:01:46;10.53;;;2.40;;
16669;SDS011;8448;52.034;5.158;2023-03-23T07:04:14;8.07;;;2.63;;
16669;SDS011;8448;52.034;5.158;2023-03-23T07:06:50;7.97;;;2.60;;
16669;SDS011;8448;52.034;5.158;2023-03-23T07:09:17;8.20;;;2.90;;
16669;SDS011;8448;52.034;5.158;2023-03-23T07:11:46;7.40;;;2.37;;
16669;SDS011;8448;52.034;5.158;2023-03-23T07:14:29;8.23;;;2.60;;
16669;SDS011;8448;52.034;5.158;2023-03-23T07:16:57;9.63;;;2.63;;
16669;SDS011;8448;52.034;5.158;2023-03-23T07:19:26;7.57;;;2.40;;
16669;SDS011;8448;52.034;5.158;2023-03-23T07:21:54;9.03;;;2.47;;
16669;SDS011;8448;52.034;5.158;2023-03-23T07:24:22;9.47;;;2.30;;
16669;SDS011;8448;52.034;5.158;2023-03-23T07:27:08;10.53;;;2.83;;
16669;SDS011;8448;52.034;5.158;2023-03-23T07:29:39;10.60;;;2.33;;
16669;SDS011;8448;52.034;5.158;2023-03-23T07:32:12;8.77;;;2.60;;
16669;SDS011;8448;52.034;5.158;2023-03-23T07:34:40;6.63;;;2.20;;
16669;SDS011;8448;52.034;5.158;2023-03-23T07:37:32;6.37;;;2.27;;
16669;SDS011;8448;52.034;5.158;2023-03-23T07:40:01;7.63;;;2.50;;
16669;SDS011;8448;52.034;5.158;2023-03-23T07:42:39;10.33;;;2.97;;
16669;SDS011;8448;52.034;5.158;2023-03-23T07:45:10;8.00;;;2.90;;
16669;SDS011;8448;52.034;5.158;2023-03-23T07:47:38;11.67;;;3.17;;
16669;SDS011;8448;52.034;5.158;2023-03-23T07:50:06;6.80;;;3.20;;
16669;SDS011;8448;52.034;5.158;2023-03-23T07:52:40;6.90;;;2.73;;
16669;SDS011;8448;52.034;5.158;2023-03-23T07:55:09;7.27;;;3.17;;
16669;SDS011;8448;52.034;5.158;2023-03-23T07:58:04;7.70;;;3.03;;
16669;SDS011;8448;52.034;5.158;2023-03-23T08:00:34;11.40;;;2.70;;
16669;SDS011;8448;52.034;5.158;2023-03-23T08:03:05;8.53;;;3.00;;
16669;SDS011;8448;52.034;5.158;2023-03-23T08:05:46;8.00;;;2.70;;
16669;SDS011;8448;52.034;5.158;2023-03-23T08:08:44;6.97;;;2.67;;
16669;SDS011;8448;52.034;5.158;2023-03-23T08:11:30;7.33;;;3.23;;
16669;SDS011;8448;52.034;5.158;2023-03-23T08:14:16;9.43;;;2.70;;
16669;SDS011;8448;52.034;5.158;2023-03-23T08:17:05;8.57;;;2.40;;
16669;SDS011;8448;52.034;5.158;2023-03-23T08:19:47;8.87;;;2.60;;
16669;SDS011;8448;52.034;5.158;2023-03-23T08:22:17;8.50;;;2.50;;
16669;SDS011;8448;52.034;5.158;2023-03-23T08:25:05;6.50;;;2.67;;
16669;SDS011;8448;52.034;5.158;2023-03-23T08:27:59;8.70;;;2.57;;
16669;SDS011;8448;52.034;5.158;2023-03-23T08:30:50;9.67;;;2.30;;
16669;SDS011;8448;52.034;5.158;2023-03-23T08:33:27;6.83;;;2.40;;
16669;SDS011;8448;52.034;5.158;2023-03-23T08:36:19;9.60;;;2.90;;
16669;SDS011;8448;52.034;5.158;2023-03-23T08:38:58;7.47;;;2.50;;
16669;SDS011;8448;52.034;5.158;2023-03-23T08:41:40;6.83;;;2.43;;
16669;SDS011;8448;52.034;5.158;2023-03-23T08:44:16;8.67;;;2.90;;
16669;SDS011;8448;52.034;5.158;2023-03-23T08:47:04;6.33;;;2.30;;
16669;SDS011;8448;52.034;5.158;2023-03-23T08:49:53;8.77;;;2.80;;
16669;SDS011;8448;52.034;5.158;2023-03-23T08:52:40;9.47;;;2.50;;
16669;SDS011;8448;52.034;5.158;2023-03-23T08:55:28;9.80;;;2.90;;
16669;SDS011;8448;52.034;5.158;2023-03-23T08:58:13;9.30;;;2.73;;
16669;SDS011;8448;52.034;5.158;2023-03-23T09:01:04;7.07;;;2.30;;
16669;SDS011;8448;52.034;5.158;2023-03-23T09:03:51;8.73;;;2.60;;
16669;SDS011;8448;52.034;5.158;2023-03-23T09:06:39;9.37;;;2.40;;
16669;SDS011;8448;52.034;5.158;2023-03-23T09:09:06;7.87;;;2.30;;
16669;SDS011;8448;52.034;5.158;2023-03-23T09:11:34;6.30;;;2.53;;
16669;SDS011;8448;52.034;5.158;2023-03-23T09:14:02;9.90;;;3.10;;
16669;SDS011;8448;52.034;5.158;2023-03-23T09:16:30;8.10;;;2.53;;
16669;SDS011;8448;52.034;5.158;2023-03-23T09:18:58;13.53;;;3.00;;
16669;SDS011;8448;52.034;5.158;2023-03-23T09:21:26;13.00;;;3.03;;
16669;SDS011;8448;52.034;5.158;2023-03-23T09:23:56;9.20;;;2.60;;
16669;SDS011;8448;52.034;5.158;2023-03-23T09:26:24;8.03;;;2.60;;
16669;SDS011;8448;52.034;5.158;2023-03-23T09:28:52;9.60;;;2.57;;
16669;SDS011;8448;52.034;5.158;2023-03-23T09:31:21;10.13;;;2.50;;
16669;SDS011;8448;52.034;5.158;2023-03-23T09:33:51;10.53;;;2.67;;
16669;SDS011;8448;52.034;5.158;2023-03-23T09:36:20;7.97;;;2.40;;
16669;SDS011;8448;52.034;5.158;2023-03-23T09:38:50;7.30;;;2.20;;
16669;SDS011;8448;52.034;5.158;2023-03-23T09:41:24;9.10;;;2.67;;
16669;SDS011;8448;52.034;5.158;2023-03-23T09:44:03;7.53;;;2.30;;
16669;SDS011;8448;52.034;5.158;2023-03-23T09:46:37;12.27;;;2.57;;
16669;SDS011;8448;52.034;5.158;2023-03-23T09:49:13;8.97;;;2.83;;
16669;SDS011;8448;52.034;5.158;2023-03-23T09:51:45;9.60;;;2.37;;
16669;SDS011;8448;52.034;5.158;2023-03-23T09:54:17;7.33;;;2.30;;
16669;SDS011;8448;52.034;5.158;2023-03-23T09:56:48;11.63;;;2.77;;
16669;SDS011;8448;52.034;5.158;2023-03-23T09:59:18;10.13;;;2.87;;
16669;SDS011;8448;52.034;5.158;2023-03-23T10:01:49;9.67;;;2.40;;
16669;SDS011;8448;52.034;5.158;2023-03-23T10:04:24;9.13;;;2.40;;
16669;SDS011;8448;52.034;5.158;2023-03-23T10:06:57;9.93;;;2.77;;
16669;SDS011;8448;52.034;5.158;2023-03-23T10:09:26;9.23;;;2.30;;
16669;SDS011;8448;52.034;5.158;2023-03-23T10:12:00;9.87;;;2.33;;
16669;SDS011;8448;52.034;5.158;2023-03-23T10:14:37;10.37;;;2.70;;
16669;SDS011;8448;52.034;5.158;2023-03-23T10:17:12;8.63;;;2.20;;
16669;SDS011;8448;52.034;5.158;2023-03-23T10:19:45;9.80;;;2.20;;
16669;SDS011;8448;52.034;5.158;2023-03-23T10:22:14;8.50;;;2.43;;
16669;SDS011;8448;52.034;5.158;2023-03-23T10:24:47;8.70;;;2.40;;
16669;SDS011;8448;52.034;5.158;2023-03-23T10:27:22;11.17;;;2.50;;
16669;SDS011;8448;52.034;5.158;2023-03-23T10:29:54;10.87;;;3.10;;
16669;SDS011;8448;52.034;5.158;2023-03-23T10:32:36;8.00;;;2.63;;
16669;SDS011;8448;52.034;5.158;2023-03-23T10:35:10;7.40;;;2.60;;
16669;SDS011;8448;52.034;5.158;2023-03-23T10:37:42;14.10;;;2.77;;
16669;SDS011;8448;52.034;5.158;2023-03-23T10:40:13;7.70;;;2.40;;
16669;SDS011;8448;52.034;5.158;2023-03-23T10:42:44;7.93;;;2.05;;
16669;SDS011;8448;52.034;5.158;2023-03-23T10:45:15;8.38;;;2.17;;
16669;SDS011;8448;52.034;5.158;2023-03-23T10:47:45;9.23;;;2.35;;
16669;SDS011;8448;52.034;5.158;2023-03-23T10:50:16;10.00;;;2.75;;
16669;SDS011;8448;52.034;5.158;2023-03-23T10:52:48;9.60;;;2.75;;
16669;SDS011;8448;52.034;5.158;2023-03-23T10:55:19;8.55;;;2.33;;
16669;SDS011;8448;52.034;5.158;2023-03-23T10:57:59;9.35;;;2.40;;
16669;SDS011;8448;52.034;5.158;2023-03-23T11:00:28;7.68;;;2.58;;
16669;SDS011;8448;52.034;5.158;2023-03-23T11:02:58;8.70;;;2.65;;
16669;SDS011;8448;52.034;5.158;2023-03-23T11:05:32;8.40;;;2.50;;
16669;SDS011;8448;52.034;5.158;2023-03-23T11:08:02;9.23;;;2.60;;
16669;SDS011;8448;52.034;5.158;2023-03-23T11:10:34;11.10;;;2.83;;
16669;SDS011;8448;52.034;5.158;2023-03-23T11:13:04;10.48;;;2.42;;
16669;SDS011;8448;52.034;5.158;2023-03-23T11:15:37;9.70;;;2.47;;
16669;SDS011;8448;52.034;5.158;2023-03-23T11:18:06;7.85;;;2.28;;
16669;SDS011;8448;52.034;5.158;2023-03-23T11:20:39;8.18;;;2.30;;
16669;SDS011;8448;52.034;5.158;2023-03-23T11:23:08;9.45;;;2.22;;
16669;SDS011;8448;52.034;5.158;2023-03-23T11:25:52;9.18;;;2.38;;
16669;SDS011;8448;52.034;5.158;2023-03-23T11:28:25;9.25;;;2.22;;
16669;SDS011;8448;52.034;5.158;2023-03-23T11:30:56;9.15;;;2.65;;
16669;SDS011;8448;52.034;5.158;2023-03-23T11:33:28;8.57;;;2.55;;
16669;SDS011;8448;52.034;5.158;2023-03-23T11:35:58;8.88;;;2.47;;
16669;SDS011;8448;52.034;5.158;2023-03-23T11:38:26;8.85;;;2.38;;
16669;SDS011;8448;52.034;5.158;2023-03-23T11:40:53;9.73;;;2.35;;
16669;SDS011;8448;52.034;5.158;2023-03-23T11:43:21;10.40;;;2.45;;
16669;SDS011;8448;52.034;5.158;2023-03-23T11:45:54;12.47;;;3.07;;
16669;SDS011;8448;52.034;5.158;2023-03-23T11:48:27;12.83;;;2.97;;
16669;SDS011;8448;52.034;5.158;2023-03-23T11:50:58;10.47;;;2.60;;
16669;SDS011;8448;52.034;5.158;2023-03-23T11:53:32;11.30;;;2.87;;
16669;SDS011;8448;52.034;5.158;2023-03-23T11:56:07;10.77;;;2.93;;
16669;SDS011;8448;52.034;5.158;2023-03-23T11:58:43;10.07;;;2.30;;
16669;SDS011;8448;52.034;5.158;2023-03-23T12:01:12;10.83;;;2.73;;
16669;SDS011;8448;52.034;5.158;2023-03-23T12:03:53;8.93;;;2.37;;
16669;SDS011;8448;52.034;5.158;2023-03-23T12:06:32;9.80;;;2.05;;
16669;SDS011;8448;52.034;5.158;2023-03-23T12:09:07;8.60;;;2.47;;
16669;SDS011;8448;52.034;5.158;2023-03-23T12:11:44;7.80;;;2.70;;
16669;SDS011;8448;52.034;5.158;2023-03-23T12:14:21;8.37;;;2.43;;
16669;SDS011;8448;52.034;5.158;2023-03-23T12:16:58;10.97;;;2.20;;
16669;SDS011;8448;52.034;5.158;2023-03-23T12:19:33;7.07;;;1.90;;
16669;SDS011;8448;52.034;5.158;2023-03-23T12:22:10;9.17;;;2.57;;
16669;SDS011;8448;52.034;5.158;2023-03-23T12:24:49;6.90;;;1.83;;
16669;SDS011;8448;52.034;5.158;2023-03-23T12:27:25;8.70;;;2.10;;
16669;SDS011;8448;52.034;5.158;2023-03-23T12:30:04;9.23;;;2.17;;
16669;SDS011;8448;52.034;5.158;2023-03-23T12:32:41;4.95;;;1.70;;
16669;SDS011;8448;52.034;5.158;2023-03-23T12:35:31;6.88;;;2.05;;
16669;SDS011;8448;52.034;5.158;2023-03-23T12:38:08;6.70;;;2.00;;
16669;SDS011;8448;52.034;5.158;2023-03-23T12:40:47;9.05;;;2.30;;
16669;SDS011;8448;52.034;5.158;2023-03-23T12:43:20;5.40;;;1.77;;
16669;SDS011;8448;52.034;5.158;2023-03-23T12:46:14;6.30;;;2.30;;
16669;SDS011;8448;52.034;5.158;2023-03-23T12:48:54;7.43;;;2.10;;
16669;SDS011;8448;52.034;5.158;2023-03-23T12:51:27;8.80;;;2.20;;
16669;SDS011;8448;52.034;5.158;2023-03-23T12:54:03;5.82;;;2.03;;
16669;SDS011;8448;52.034;5.158;2023-03-23T12:56:37;9.00;;;2.40;;
16669;SDS011;8448;52.034;5.158;2023-03-23T12:59:10;9.57;;;2.30;;
16669;SDS011;8448;52.034;5.158;2023-03-23T13:01:42;6.15;;;1.85;;
16669;SDS011;8448;52.034;5.158;2023-03-23T13:04:11;10.00;;;2.50;;
16669;SDS011;8448;52.034;5.158;2023-03-23T13:06:41;5.38;;;1.77;;
16669;SDS011;8448;52.034;5.158;2023-03-23T13:09:13;6.45;;;2.17;;
16669;SDS011;8448;52.034;5.158;2023-03-23T13:11:43;6.72;;;1.90;;
16669;SDS011;8448;52.034;5.158;2023-03-23T13:14:15;8.25;;;2.30;;
16669;SDS011;8448;52.034;5.158;2023-03-23T13:16:54;6.40;;;2.25;;
16669;SDS011;8448;52.034;5.158;2023-03-23T13:19:28;6.03;;;2.13;;
16669;SDS011;8448;52.034;5.158;2023-03-23T13:22:01;7.30;;;2.10;;
16669;SDS011;8448;52.034;5.158;2023-03-23T13:24:33;8.45;;;2.33;;
16669;SDS011;8448;52.034;5.158;2023-03-23T13:27:04;5.63;;;1.90;;
16669;SDS011;8448;52.034;5.158;2023-03-23T13:29:33;6.90;;;2.20;;
16669;SDS011;8448;52.034;5.158;2023-03-23T13:32:05;6.47;;;1.85;;
16669;SDS011;8448;52.034;5.158;2023-03-23T13:34:37;6.10;;;2.03;;
16669;SDS011;8448;52.034;5.158;2023-03-23T13:37:09;5.88;;;1.85;;
16669;SDS011;8448;52.034;5.158;2023-03-23T13:39:47;7.07;;;2.00;;
16669;SDS011;8448;52.034;5.158;2023-03-23T13:42:18;8.90;;;2.35;;
16669;SDS011;8448;52.034;5.158;2023-03-23T13:44:55;8.02;;;2.03;;
16669;SDS011;8448;52.034;5.158;2023-03-23T13:47:37;7.07;;;2.20;;
16669;SDS011;8448;52.034;5.158;2023-03-23T13:50:10;5.65;;;2.08;;
16669;SDS011;8448;52.034;5.158;2023-03-23T13:52:46;7.83;;;2.33;;
16669;SDS011;8448;52.034;5.158;2023-03-23T13:55:19;8.13;;;2.07;;
16669;SDS011;8448;52.034;5.158;2023-03-23T13:57:49;7.03;;;1.80;;
16669;SDS011;8448;52.034;5.158;2023-03-23T14:00:34;5.97;;;2.20;;
16669;SDS011;8448;52.034;5.158;2023-03-23T14:03:13;9.63;;;2.57;;
16669;SDS011;8448;52.034;5.158;2023-03-23T14:05:42;6.07;;;2.27;;
16669;SDS011;8448;52.034;5.158;2023-03-23T14:08:12;4.90;;;2.30;;
16669;SDS011;8448;52.034;5.158;2023-03-23T14:10:41;6.15;;;2.25;;
16669;SDS011;8448;52.034;5.158;2023-03-23T14:13:16;7.15;;;1.98;;
16669;SDS011;8448;52.034;5.158;2023-03-23T14:15:53;8.25;;;2.42;;
16669;SDS011;8448;52.034;5.158;2023-03-23T14:18:29;7.40;;;2.20;;
16669;SDS011;8448;52.034;5.158;2023-03-23T14:20:58;5.85;;;2.13;;
16669;SDS011;8448;52.034;5.158;2023-03-23T14:23:27;8.70;;;2.28;;
16669;SDS011;8448;52.034;5.158;2023-03-23T14:25:59;8.40;;;2.20;;
16669;SDS011;8448;52.034;5.158;2023-03-23T14:28:37;8.15;;;2.15;;
16669;SDS011;8448;52.034;5.158;2023-03-23T14:31:10;8.57;;;2.40;;
16669;SDS011;8448;52.034;5.158;2023-03-23T14:33:44;8.55;;;2.15;;
16669;SDS011;8448;52.034;5.158;2023-03-23T14:36:13;6.90;;;2.08;;
16669;SDS011;8448;52.034;5.158;2023-03-23T14:38:41;5.80;;;1.92;;
16669;SDS011;8448;52.034;5.158;2023-03-23T14:41:10;7.53;;;2.13;;
16669;SDS011;8448;52.034;5.158;2023-03-23T14:43:38;5.60;;;1.75;;
16669;SDS011;8448;52.034;5.158;2023-03-23T14:46:07;6.75;;;2.13;;
16669;SDS011;8448;52.034;5.158;2023-03-23T14:49:00;7.50;;;1.95;;
16669;SDS011;8448;52.034;5.158;2023-03-23T14:51:28;7.13;;;2.33;;
16669;SDS011;8448;52.034;5.158;2023-03-23T14:53:57;7.85;;;1.80;;
16669;SDS011;8448;52.034;5.158;2023-03-23T14:56:31;10.93;;;2.40;;
16669;SDS011;8448;52.034;5.158;2023-03-23T14:59:02;5.90;;;2.10;;
16669;SDS011;8448;52.034;5.158;2023-03-23T15:01:31;6.30;;;2.47;;
16669;SDS011;8448;52.034;5.158;2023-03-23T15:04:04;7.93;;;2.28;;
16669;SDS011;8448;52.034;5.158;2023-03-23T15:06:36;11.95;;;2.13;;
16669;SDS011;8448;52.034;5.158;2023-03-23T15:09:05;6.53;;;2.00;;
16669;SDS011;8448;52.034;5.158;2023-03-23T15:11:36;5.70;;;1.90;;
16669;SDS011;8448;52.034;5.158;2023-03-23T15:14:07;9.05;;;2.42;;
16669;SDS011;8448;52.034;5.158;2023-03-23T15:16:39;6.50;;;2.05;;
16669;SDS011;8448;52.034;5.158;2023-03-23T15:19:13;7.25;;;2.08;;
16669;SDS011;8448;52.034;5.158;2023-03-23T15:21:47;8.32;;;2.13;;
16669;SDS011;8448;52.034;5.158;2023-03-23T15:24:20;6.93;;;2.10;;
16669;SDS011;8448;52.034;5.158;2023-03-23T15:27:02;5.75;;;2.15;;
16669;SDS011;8448;52.034;5.158;2023-03-23T15:29:45;7.05;;;2.08;;
16669;SDS011;8448;52.034;5.158;2023-03-23T15:32:19;8.15;;;1.88;;
16669;SDS011;8448;52.034;5.158;2023-03-23T15:34:52;11.00;;;2.42;;
16669;SDS011;8448;52.034;5.158;2023-03-23T15:37:21;10.02;;;2.50;;
16669;SDS011;8448;52.034;5.158;2023-03-23T15:39:51;11.18;;;2.30;;
16669;SDS011;8448;52.034;5.158;2023-03-23T15:42:21;11.18;;;2.22;;
16669;SDS011;8448;52.034;5.158;2023-03-23T15:47:44;5.80;;;2.22;;